Flag for Finland

Past Weather in 67°36'23.6"N, 24°08'46.6"E, Finland — Yesterday and Last 2 Weeks

Currently: 66 °F. Sunny. (Weather station: Kittila, Finland). See more current weather

Past Weather in 67°36'23.6"N, 24°08'46.6"E — Graph

°F

67°36'23.6"N, 24°08'46.6"E Temperature Yesterday

Maximum temperature yesterday: 72 °F (at 2:50 pm)
Minimum temperature yesterday: 54 °F (at 2:50 am)
Average temperature yesterday: 61 °F

High & Low Weather Summary for the Past Weeks

 TemperatureHumidityPressure
High79 °F (May 27, 3:20 pm)100% (May 19, 3:20 am)30.36 "Hg (May 19, 3:20 am)
Low30 °F (May 21, 2:50 am)23% (May 24, 4:20 pm)29.53 "Hg (May 19, 3:50 pm)
Average52 °F58%30.02 "Hg
* Reported May 14 10:20 pm — May 29 10:20 pm, 67°36'23.6"N, 24°08'46.6"E. Weather by CustomWeather, © 2024

Note: Actual official high and low records may vary slightly from our data, if they occured in-between our weather recording intervals... More about our weather records

67°36'23.6"N, 24°08'46.6"E Weather History for the Previous 24 Hours

Scroll right to see more
 ConditionsComfort  
Time TempWeatherWind HumidityBarometerVisibility
10:20 pm
Wed, May 29
66 °FSunny.5 mph64%29.92 "Hg10 mi
9:50 pm66 °FSunny.6 mph68%29.92 "Hg10 mi
9:20 pm68 °FSunny.6 mph60%29.92 "Hg10 mi
8:50 pm68 °FPassing clouds.9 mph60%29.92 "HgN/A
8:20 pm70 °FPassing clouds.9 mph57%29.92 "HgN/A
7:50 pm70 °FPassing clouds.8 mph57%29.92 "HgN/A
7:20 pm70 °FSunny.10 mph57%29.92 "Hg10 mi
6:50 pm70 °FPassing clouds.7 mph57%29.92 "HgN/A
6:20 pm70 °FPassing clouds.7 mph57%29.92 "HgN/A
5:50 pm68 °FSunny.7 mph60%29.95 "Hg10 mi
5:20 pm68 °FPassing clouds.7 mph60%29.95 "HgN/A
4:20 pm68 °FPassing clouds.8 mph60%29.95 "HgN/A
3:50 pm68 °FPassing clouds.8 mph64%29.95 "HgN/A
2:50 pm66 °FPassing clouds.8 mph68%29.95 "HgN/A
1:50 pm64 °FScattered clouds.8 mph78%29.98 "HgN/A
1:20 pm63 °FScattered clouds.7 mph77%29.98 "HgN/A
12:50 pm63 °FPartly sunny.5 mph77%29.98 "HgN/A
12:20 pm61 °FLow clouds.6 mph83%29.98 "HgN/A
11:20 am57 °FLow clouds.6 mph94%29.98 "HgN/A
10:50 am55 °FLow clouds.6 mph100%29.98 "HgN/A
10:20 am55 °FLow clouds.7 mph100%29.98 "HgN/A
9:50 am55 °FLow clouds.5 mph100%29.98 "HgN/A
9:20 am55 °FLow clouds.5 mph100%29.98 "HgN/A
8:50 am55 °FLow clouds.3 mph100%29.98 "HgN/A
8:20 am55 °FFog.5 mph100%29.98 "Hg2 mi
7:50 am55 °FLow clouds.6 mph100%29.95 "HgN/A
7:20 am55 °FFog.5 mph100%29.95 "Hg1 mi
6:50 am55 °FFog.5 mph100%29.95 "Hg1 mi
6:20 am55 °FFog.5 mph100%29.95 "Hg1 mi
5:50 am54 °FFog.6 mph100%29.95 "Hg1 mi
5:20 am52 °FFog.5 mph100%29.95 "Hg2 mi
4:20 am50 °FFog.2 mph100%29.95 "Hg0 mi
3:50 am50 °FFog.No wind100%29.95 "Hg1 mi
3:20 am50 °FLight fog.1 mph100%29.92 "Hg4 mi
2:50 am50 °FFog.2 mph100%29.92 "Hg0 mi
2:20 am54 °FLight fog.2 mph100%29.92 "Hg1 mi
1:50 am54 °FFog.3 mph94%29.92 "Hg0 mi
1:20 am55 °FClear.1 mph100%29.92 "HgN/A
12:50 am55 °FSunny.3 mph100%29.92 "Hg10 mi
12:20 am57 °FSunny.2 mph94%29.92 "Hg10 mi
11:20 pm
Tue, May 28
61 °FSunny.2 mph88%29.89 "Hg10 mi
Weather by CustomWeather, © 2024

See weather overview